Overview Statistics Trail Chart Weather Telemetry Raw packets
 

This is the latest recevied weather packets stored in our database for station/object HS5XHC-1. If no packets are shown the sender has not sent any weather packets the latest 10 day(s).

<< 5 6 7 8 9 10 11 >>
Time Temp. Humidity Pressure Rain* Wind** Luminosity Snow
1777783336 35° C 32% 967 hPa - - 0 W/m² -
1777782712 33.89° C 35% 967 hPa - - 0 W/m² -
1777782088 34.44° C 33% 968 hPa - - 0 W/m² -
1777781464 33.89° C 36% 968 hPa - - 0 W/m² -
1777780840 32.78° C 38% 968 hPa - - 0 W/m² -
1777780216 32.22° C 37% 968 hPa - - 0 W/m² -
1777779592 32.22° C 38% 968 hPa - - 0 W/m² -
1777778968 32.22° C 39% 968 hPa - - 0 W/m² -
1777778344 31.67° C 41% 968 hPa - - 0 W/m² -
1777777720 31.67° C 41% 968 hPa - - 0 W/m² -
1777777095 30.56° C 42% 968 hPa - - 0 W/m² -
1777776471 30.56° C 43% 968 hPa - - 0 W/m² -
1777775847 30° C 44% 968 hPa - - 0 W/m² -
1777775223 30° C 44% 968 hPa - - 0 W/m² -
1777774599 30° C 45% 968 hPa - - 0 W/m² -
1777773976 29.44° C 46% 968 hPa - - 0 W/m² -
1777773352 29.44° C 47% 968 hPa - - 0 W/m² -
1777772732 28.89° C 48% 968 hPa - - 0 W/m² -
1777772104 28.33° C 50% 968 hPa - - 0 W/m² -
1777771480 28.33° C 50% 968 hPa - - 0 W/m² -
1777770856 27.78° C 51% 968 hPa - - 0 W/m² -
1777770231 28.33° C 49% 968 hPa - - 0 W/m² -
1777769608 28.33° C 48% 968 hPa - - 0 W/m² -
1777768984 27.78° C 49% 967 hPa - - 0 W/m² -
1777768359 27.78° C 49% 967 hPa - - 0 W/m² -

* Rain since midnight (hover to see other rain measurements)
** Current wind speed in m/s (hover to see current wind gust speed)